createdAt,value
2023-01-07T00:01:07.074Z,32.80
2023-01-07T00:06:08.684Z,31.38
2023-01-07T00:11:06.275Z,33.35
2023-01-07T00:16:03.544Z,35.38
2023-01-07T00:21:00.656Z,35.45
2023-01-07T00:26:23.085Z,33.85
2023-01-07T00:31:24.898Z,33.97
2023-01-07T00:36:18.752Z,32.35
2023-01-07T00:41:12.646Z,28.75
2023-01-07T00:46:06.990Z,28.73
2023-01-07T00:51:00.780Z,29.65
2023-01-07T00:55:54.364Z,26.05
2023-01-07T01:00:48.062Z,26.50
2023-01-07T01:05:41.086Z,26.08
2023-01-07T01:10:34.866Z,24.20
2023-01-07T01:15:28.275Z,23.15
2023-01-07T01:20:20.992Z,24.48
2023-01-07T01:25:18.700Z,28.80
2023-01-07T01:30:13.393Z,29.80
2023-01-07T01:35:08.331Z,31.65
2023-01-07T01:40:04.525Z,28.45
2023-01-07T01:45:01.810Z,27.42
2023-01-07T01:50:11.435Z,24.83
2023-01-07T01:55:05.786Z,22.92
2023-01-07T02:00:00.631Z,22.23
2023-01-07T02:04:55.648Z,22.30
2023-01-07T02:10:15.791Z,22.90
2023-01-07T02:15:15.829Z,21.00
2023-01-07T02:20:28.987Z,20.80
2023-01-07T02:25:44.022Z,20.83
2023-01-07T02:30:39.211Z,18.83
2023-01-07T02:35:34.809Z,18.15
2023-01-07T02:40:41.588Z,18.02
2023-01-07T02:45:48.721Z,16.85
2023-01-07T02:50:42.330Z,15.85
2023-01-07T02:56:07.185Z,16.02
2023-01-07T03:01:24.405Z,18.05
2023-01-07T03:06:18.033Z,17.50
2023-01-07T03:11:12.206Z,14.90
2023-01-07T03:16:20.823Z,14.80
2023-01-07T03:21:16.398Z,14.25
2023-01-07T03:26:15.454Z,13.65
2023-01-07T03:31:11.561Z,12.82
2023-01-07T03:36:06.801Z,13.25
2023-01-07T03:41:01.551Z,12.35
2023-01-07T03:45:56.234Z,12.93
2023-01-07T03:50:50.877Z,11.45
2023-01-07T04:00:38.178Z,11.17
2023-01-07T04:05:40.355Z,10.25
2023-01-07T04:10:35.269Z,10.25
2023-01-07T04:15:28.854Z,11.23
2023-01-07T04:20:22.609Z,10.35
2023-01-07T04:25:16.532Z,10.38
2023-01-07T04:30:12.046Z,9.95
2023-01-07T04:35:06.384Z,9.82
2023-01-07T04:39:59.982Z,9.70
2023-01-07T04:44:55.455Z,10.40
2023-01-07T04:49:49.256Z,9.65
2023-01-07T04:54:43.787Z,9.88
2023-01-07T04:59:37.649Z,9.77
2023-01-07T05:04:31.766Z,9.68
2023-01-07T05:09:26.335Z,9.68
2023-01-07T05:14:20.432Z,9.82
2023-01-07T05:19:18.095Z,11.55
2023-01-07T05:24:13.973Z,11.27
2023-01-07T05:29:08.541Z,10.35
2023-01-07T05:34:01.854Z,10.73
2023-01-07T05:38:56.720Z,10.80
2023-01-07T05:43:50.586Z,8.63
2023-01-07T05:48:43.627Z,9.20
2023-01-07T05:53:38.251Z,8.95
2023-01-07T05:58:32.853Z,8.77
2023-01-07T06:03:27.172Z,8.63
2023-01-07T06:08:21.615Z,8.52
2023-01-07T06:13:19.470Z,7.88
2023-01-07T06:18:14.427Z,7.72
2023-01-07T06:23:09.299Z,8.52
2023-01-07T06:28:02.916Z,9.00
2023-01-07T06:32:56.949Z,9.55
2023-01-07T06:37:54.155Z,7.63
2023-01-07T06:42:48.006Z,8.10
2023-01-07T06:47:42.411Z,10.73
2023-01-07T06:52:36.193Z,8.77
2023-01-07T06:57:29.837Z,9.80
2023-01-07T07:07:17.915Z,7.63
2023-01-07T07:12:11.847Z,8.65
2023-01-07T07:17:06.262Z,9.25
2023-01-07T07:21:59.619Z,8.27
2023-01-07T07:31:46.326Z,8.95
2023-01-07T07:36:39.950Z,8.70
2023-01-07T07:41:33.982Z,8.95
2023-01-07T07:46:32.501Z,8.20
2023-01-07T07:51:25.833Z,8.15
2023-01-07T07:56:19.531Z,8.13
2023-01-07T08:01:14.078Z,9.32
2023-01-07T08:06:08.890Z,7.97
2023-01-07T08:11:04.223Z,8.85
2023-01-07T08:15:58.028Z,7.90
2023-01-07T08:20:52.299Z,7.45
2023-01-07T08:25:46.185Z,8.73
2023-01-07T08:30:39.268Z,8.23
2023-01-07T08:35:33.289Z,7.57
2023-01-07T08:40:26.766Z,8.63
2023-01-07T08:45:20.724Z,8.55
2023-01-07T08:50:15.169Z,11.18
2023-01-07T08:55:10.631Z,8.77
2023-01-07T09:00:06.034Z,7.22
2023-01-07T09:05:00.158Z,16.20
2023-01-07T09:09:54.064Z,13.43
2023-01-07T09:14:48.132Z,9.02
2023-01-07T09:19:41.888Z,8.63
2023-01-07T09:24:35.341Z,8.48
2023-01-07T09:34:23.258Z,11.52
2023-01-07T09:39:16.452Z,9.50
2023-01-07T09:44:28.252Z,9.30
2023-01-07T09:49:22.771Z,7.78
2023-01-07T09:54:27.473Z,7.32
2023-01-07T09:59:21.591Z,8.85
2023-01-07T10:04:20.780Z,8.25
2023-01-07T10:09:14.555Z,7.88
2023-01-07T10:14:38.837Z,8.20
2023-01-07T10:19:47.900Z,9.52
2023-01-07T10:24:43.904Z,8.57
2023-01-07T10:29:59.213Z,8.93
2023-01-07T10:34:56.731Z,8.35
2023-01-07T10:40:01.515Z,8.10
2023-01-07T10:45:16.405Z,9.25
2023-01-07T10:50:25.460Z,8.77
2023-01-07T10:55:50.570Z,8.70
2023-01-07T11:00:47.411Z,9.65
2023-01-07T11:05:50.993Z,10.43
2023-01-07T11:10:44.663Z,10.48
2023-01-07T11:15:59.079Z,9.40
2023-01-07T11:20:58.483Z,9.18
2023-01-07T11:25:52.712Z,9.15
2023-01-07T11:30:46.940Z,10.15
2023-01-07T11:35:52.732Z,9.93
2023-01-07T11:41:05.367Z,9.43
2023-01-07T11:46:20.078Z,10.15
2023-01-07T11:51:22.465Z,12.45
2023-01-07T11:56:22.031Z,11.27
2023-01-07T12:01:20.096Z,9.13
2023-01-07T12:06:27.099Z,11.98
2023-01-07T12:11:22.352Z,14.35
2023-01-07T12:16:15.704Z,11.73
2023-01-07T12:21:39.268Z,11.35
2023-01-07T12:26:46.926Z,11.83
2023-01-07T12:31:59.979Z,11.00
2023-01-07T12:37:06.710Z,12.75
2023-01-07T12:42:27.130Z,11.73
2023-01-07T12:47:59.939Z,13.48
2023-01-07T12:53:05.302Z,14.00
2023-01-07T12:58:51.485Z,11.27
2023-01-07T13:04:01.214Z,11.95
2023-01-07T13:09:15.763Z,11.73
2023-01-07T13:14:18.887Z,11.98
2023-01-07T13:19:14.751Z,11.77
2023-01-07T13:24:19.117Z,11.63
2023-01-07T13:29:21.507Z,13.30
2023-01-07T13:34:14.646Z,14.38
2023-01-07T13:39:26.190Z,14.57
2023-01-07T13:45:21.228Z,14.75
2023-01-07T13:50:26.576Z,16.35
2023-01-07T13:55:41.456Z,19.15
2023-01-07T14:00:42.843Z,15.25
2023-01-07T14:05:43.640Z,15.15
2023-01-07T14:10:38.611Z,15.77
2023-01-07T14:15:59.065Z,16.65
2023-01-07T14:21:01.893Z,14.68
2023-01-07T14:26:03.831Z,16.63
2023-01-07T14:30:58.829Z,15.93
2023-01-07T14:35:58.924Z,16.40
2023-01-07T14:41:19.762Z,16.48
2023-01-07T14:46:25.345Z,13.93
2023-01-07T14:51:37.326Z,15.15
2023-01-07T14:56:37.417Z,13.85
2023-01-07T15:01:42.895Z,15.02
2023-01-07T15:06:39.979Z,16.42
2023-01-07T15:11:51.488Z,15.43
2023-01-07T15:16:48.851Z,14.90
2023-01-07T15:21:55.515Z,15.13
2023-01-07T15:27:16.143Z,15.45
2023-01-07T15:32:24.076Z,14.95
2023-01-07T15:37:19.481Z,16.05
2023-01-07T15:42:23.169Z,14.82
2023-01-07T15:52:28.666Z,15.43
2023-01-07T15:57:35.194Z,15.10
2023-01-07T16:02:34.965Z,16.05
2023-01-07T16:07:30.192Z,15.65
2023-01-07T16:12:38.245Z,15.05
2023-01-07T16:17:31.834Z,14.93
2023-01-07T16:32:15.849Z,17.58
2023-01-07T16:37:15.354Z,20.42
2023-01-07T16:42:24.137Z,26.30
2023-01-07T16:47:23.867Z,20.73
2023-01-07T16:52:23.933Z,18.08
2023-01-07T16:57:33.996Z,17.80
2023-01-07T17:02:34.580Z,16.70
2023-01-07T17:07:28.372Z,16.98
2023-01-07T17:12:39.253Z,20.42
2023-01-07T17:17:34.254Z,18.58
2023-01-07T17:22:38.684Z,18.08
2023-01-07T17:27:32.514Z,17.95
2023-01-07T17:32:26.886Z,16.83
2023-01-07T17:37:20.819Z,21.05
2023-01-07T17:42:43.503Z,19.52
2023-01-07T17:47:37.602Z,24.10
2023-01-07T17:52:31.115Z,24.20
2023-01-07T17:57:24.561Z,21.02
2023-01-07T18:02:26.264Z,20.15
2023-01-07T18:07:19.898Z,23.35
2023-01-07T18:12:32.263Z,22.00
2023-01-07T18:17:27.239Z,20.75
2023-01-07T18:22:21.903Z,21.92
2023-01-07T18:27:16.587Z,22.05
2023-01-07T18:32:10.332Z,20.75
2023-01-07T18:37:04.094Z,22.40
2023-01-07T18:46:51.161Z,29.20
2023-01-07T18:51:47.478Z,21.55
2023-01-07T18:56:41.554Z,20.65
2023-01-07T19:01:34.893Z,21.45
2023-01-07T19:06:29.077Z,21.35
2023-01-07T19:11:23.603Z,21.35
2023-01-07T19:16:17.764Z,20.75
2023-01-07T19:21:13.683Z,25.17
2023-01-07T19:26:08.235Z,26.80
2023-01-07T19:31:10.411Z,25.40
2023-01-07T19:36:28.680Z,25.95
2023-01-07T19:41:23.355Z,28.55
2023-01-07T19:46:20.460Z,27.20
2023-01-07T19:51:14.657Z,26.60
2023-01-07T19:56:11.947Z,24.95
2023-01-07T20:01:09.432Z,26.20
2023-01-07T20:06:08.393Z,27.50
2023-01-07T20:11:02.561Z,35.15
2023-01-07T20:15:56.412Z,30.40
2023-01-07T20:21:00.687Z,26.45
2023-01-07T20:25:54.656Z,30.05
2023-01-07T20:30:48.385Z,28.75
2023-01-07T20:35:43.760Z,27.90
2023-01-07T20:40:42.154Z,26.92
2023-01-07T20:45:38.511Z,29.02
2023-01-07T20:50:33.011Z,30.20
2023-01-07T20:55:26.868Z,33.63
2023-01-07T21:00:21.233Z,64.25
2023-01-07T21:05:21.174Z,35.72
2023-01-07T21:10:15.910Z,38.13
2023-01-07T21:15:30.090Z,37.13
2023-01-07T21:20:23.898Z,35.53
2023-01-07T21:25:18.600Z,32.25
2023-01-07T21:30:17.426Z,29.80
2023-01-07T21:35:12.463Z,28.88
2023-01-07T21:40:09.949Z,29.67
2023-01-07T21:45:05.312Z,29.23
2023-01-07T21:50:00.264Z,29.73
2023-01-07T21:54:56.317Z,31.20
2023-01-07T21:59:49.890Z,30.52
2023-01-07T22:04:44.256Z,28.60
2023-01-07T22:09:38.811Z,28.52
2023-01-07T22:14:33.871Z,31.23
2023-01-07T22:19:29.109Z,27.63
2023-01-07T22:24:22.006Z,29.45
2023-01-07T22:29:15.741Z,30.45
2023-01-07T22:34:10.868Z,29.85
2023-01-07T22:39:06.864Z,30.45
2023-01-07T22:44:07.288Z,31.50
2023-01-07T22:49:00.592Z,33.65
2023-01-07T22:53:57.032Z,32.55
2023-01-07T22:58:51.261Z,34.88
2023-01-07T23:03:45.925Z,30.85
2023-01-07T23:08:39.048Z,35.00
2023-01-07T23:13:33.193Z,36.08
2023-01-07T23:18:26.886Z,33.33
2023-01-07T23:23:20.474Z,32.50
2023-01-07T23:28:15.654Z,35.83
2023-01-07T23:33:08.818Z,33.22
2023-01-07T23:38:04.323Z,31.65
2023-01-07T23:42:57.778Z,31.73
2023-01-07T23:47:50.125Z,33.63
2023-01-07T23:52:43.943Z,32.63
2023-01-07T23:57:37.928Z,31.95
